Time;durP1;ratioP1;P1;durP2;ratioP2;P2;SDS_P1;SDS_P2;PMS_P1;PMS_P2;Temp;Humidity;BMP_temperature;BMP_pressure;BME280_temperature;BME280_humidity;BME280_pressure;Samples;Min_cycle;Max_cycle;Signal;HPM_P1;HPM_P2
2021/12/24 00:00:33;;;;;;;146.00;44.25;;;6.50;99.90;;;;;;4984284;28;20070;-84
2021/12/24 00:02:59;;;;;;;127.45;40.70;;;6.60;99.90;;;;;;4994707;28;20804;-84
2021/12/24 00:05:26;;;;;;;112.10;40.30;;;6.50;99.90;;;;;;4982490;28;20051;-85
2021/12/24 00:07:52;;;;;;;123.13;41.47;;;6.60;99.90;;;;;;5003175;28;20602;-84
2021/12/24 00:10:18;;;;;;;157.07;42.97;;;6.60;99.90;;;;;;4998678;28;20044;-84
2021/12/24 00:12:48;;;;;;;161.98;43.45;;;6.60;99.90;;;;;;5001649;28;20401;-83
2021/12/24 00:15:42;;;;;;;139.25;43.17;;;6.70;99.90;;;;;;5002603;28;20065;-84
2021/12/24 00:18:10;;;;;;;148.15;41.90;;;6.60;99.90;;;;;;5007823;28;20044;-86
2021/12/24 00:37:09;;;;;;;226.50;47.75;;;6.60;99.90;;;;;;5000947;28;20415;-84
2021/12/24 00:39:43;;;;;;;200.15;46.90;;;6.50;99.90;;;;;;5007025;28;20067;-84
2021/12/24 00:42:09;;;;;;;140.98;43.28;;;6.50;99.90;;;;;;5001286;28;20047;-84
2021/12/24 00:44:35;;;;;;;152.63;44.13;;;6.50;99.90;;;;;;5001223;28;20086;-85
2021/12/24 00:47:02;;;;;;;176.80;44.95;;;6.50;99.90;;;;;;5002585;28;20090;-85
2021/12/24 00:49:27;;;;;;;177.65;45.72;;;6.60;99.90;;;;;;5011007;28;20039;-85
2021/12/24 00:57:24;;;;;;;197.32;47.28;;;6.70;99.90;;;;;;4980735;28;20083;-85
2021/12/24 00:59:49;;;;;;;189.57;46.03;;;6.70;99.90;;;;;;4995824;28;20070;-85
2021/12/24 01:02:15;;;;;;;184.73;45.13;;;6.70;99.90;;;;;;4998069;28;20136;-85
2021/12/24 01:04:41;;;;;;;136.25;41.80;;;6.80;99.90;;;;;;5002863;28;20475;-86
2021/12/24 01:07:07;;;;;;;151.38;44.15;;;6.80;99.90;;;;;;5007886;28;20423;-86
2021/12/24 01:09:33;;;;;;;122.80;41.67;;;6.90;99.90;;;;;;5004327;28;20059;-86
2021/12/24 01:11:59;;;;;;;119.80;41.10;;;6.90;99.90;;;;;;5003601;28;20461;-85
2021/12/24 01:14:29;;;;;;;114.25;40.85;;;6.90;99.90;;;;;;4983930;28;20906;-86
2021/12/24 01:17:12;;;;;;;131.80;40.78;;;7.00;99.90;;;;;;5004664;28;20666;-85
2021/12/24 01:19:43;;;;;;;137.68;41.78;;;7.10;99.90;;;;;;4985074;28;20497;-85
2021/12/24 01:25:00;;;;;;;123.80;39.88;;;7.10;99.90;;;;;;5001019;28;21077;-86
2021/12/24 01:27:53;;;;;;;131.48;38.95;;;7.10;99.90;;;;;;5004118;28;20101;-85
2021/12/24 01:38:26;;;;;;;97.03;37.25;;;7.30;99.90;;;;;;4994687;28;20077;-86
2021/12/24 01:41:05;;;;;;;111.22;38.38;;;7.30;99.90;;;;;;4968723;28;20388;-86
2021/12/24 01:43:31;;;;;;;94.10;36.42;;;7.30;99.90;;;;;;5022232;28;20051;-85
2021/12/24 01:45:59;;;;;;;109.03;38.53;;;7.40;99.90;;;;;;5004262;28;20046;-86
2021/12/24 01:48:25;;;;;;;98.45;37.15;;;7.40;99.90;;;;;;4998993;28;20051;-86
2021/12/24 01:50:54;;;;;;;86.50;36.33;;;7.50;99.90;;;;;;5001056;28;20047;-85
2021/12/24 01:53:23;;;;;;;100.15;37.83;;;7.50;99.90;;;;;;5000572;28;20499;-87
2021/12/24 01:55:50;;;;;;;100.32;37.67;;;7.50;99.90;;;;;;4992418;28;20069;-86
2021/12/24 01:58:27;;;;;;;97.13;38.05;;;7.60;99.90;;;;;;5000476;28;20997;-86
2021/12/24 02:00:56;;;;;;;80.18;36.00;;;7.70;99.90;;;;;;5004708;28;20146;-86
2021/12/24 02:03:22;;;;;;;92.80;36.90;;;7.70;99.90;;;;;;4997690;28;20059;-86
2021/12/24 02:05:48;;;;;;;85.00;34.78;;;7.80;99.90;;;;;;5012116;28;20048;-86
2021/12/24 02:08:16;;;;;;;72.22;32.88;;;7.80;99.90;;;;;;4984636;28;20489;-86
2021/12/24 02:10:43;;;;;;;68.03;31.77;;;7.80;99.90;;;;;;5005251;28;20146;-85
2021/12/24 02:13:13;;;;;;;72.00;32.13;;;7.90;99.90;;;;;;4995677;28;20770;-86
2021/12/24 02:16:00;;;;;;;67.20;30.45;;;7.90;99.90;;;;;;5002783;28;20047;-86
2021/12/24 02:29:32;;;;;;;64.72;28.38;;;8.20;99.90;;;;;;5003618;28;20691;-86
2021/12/24 02:31:57;;;;;;;56.33;28.15;;;8.20;99.90;;;;;;4977350;28;20067;-87
2021/12/24 02:34:23;;;;;;;61.38;28.52;;;8.20;99.90;;;;;;4985096;28;20463;-87
2021/12/24 02:36:49;;;;;;;53.85;27.10;;;8.30;99.90;;;;;;4986411;28;20545;-87
2021/12/24 02:39:16;;;;;;;54.33;28.45;;;8.30;99.90;;;;;;4989328;28;20154;-89
2021/12/24 02:41:41;;;;;;;49.90;25.42;;;8.40;99.90;;;;;;4990155;28;20788;-87
2021/12/24 02:44:10;;;;;;;51.35;25.83;;;8.30;99.90;;;;;;5003290;28;20044;-85
2021/12/24 02:46:53;;;;;;;48.00;25.80;;;8.50;99.90;;;;;;4974153;28;20453;-86
2021/12/24 02:53:55;;;;;;;53.40;26.17;;;8.50;99.90;;;;;;4987635;28;20569;-86
2021/12/24 02:54:49;;;;;;;44.10;23.83;;;8.60;99.90;;;;;;4989820;28;20762;-88
2021/12/24 02:57:19;;;;;;;50.17;24.48;;;8.60;99.90;;;;;;4973646;28;20089;-86
2021/12/24 02:59:58;;;;;;;52.28;24.40;;;8.70;99.90;;;;;;4986162;28;20052;-86
2021/12/24 03:02:25;;;;;;;46.80;23.15;;;8.60;99.90;;;;;;5003515;28;20051;-88
2021/12/24 03:04:51;;;;;;;40.95;21.27;;;8.70;99.90;;;;;;4982050;28;20063;-86
2021/12/24 03:07:16;;;;;;;37.38;19.42;;;8.70;99.90;;;;;;4953171;28;20040;-86
2021/12/24 03:09:42;;;;;;;36.95;19.00;;;8.80;99.90;;;;;;4980134;28;20567;-86
2021/12/24 03:12:11;;;;;;;36.72;18.73;;;8.80;99.90;;;;;;4987120;28;20113;-87
2021/12/24 03:14:37;;;;;;;34.53;18.38;;;8.90;99.90;;;;;;4984547;28;20047;-86
2021/12/24 03:17:09;;;;;;;32.88;17.33;;;8.80;99.90;;;;;;4965332;28;20040;-87
2021/12/24 03:19:35;;;;;;;31.00;16.60;;;8.90;99.90;;;;;;4972208;28;20737;-85
2021/12/24 03:22:15;;;;;;;28.13;17.05;;;9.00;99.90;;;;;;5001748;28;20059;-85
2021/12/24 03:24:41;;;;;;;27.67;16.40;;;9.00;99.90;;;;;;4964054;28;20060;-86
2021/12/24 03:27:11;;;;;;;26.48;14.90;;;9.00;99.90;;;;;;5004216;28;20048;-84
2021/12/24 03:29:37;;;;;;;27.58;14.73;;;9.00;99.90;;;;;;5004871;28;20528;-86
2021/12/24 03:32:04;;;;;;;27.02;15.23;;;8.90;99.90;;;;;;4970465;28;20055;-86
2021/12/24 03:34:30;;;;;;;22.33;13.25;;;9.00;99.90;;;;;;4988188;28;20079;-84
2021/12/24 03:36:56;;;;;;;25.77;14.30;;;9.00;99.90;;;;;;5009605;28;20608;-84
2021/12/24 03:39:22;;;;;;;23.52;13.93;;;9.00;99.90;;;;;;4989581;28;20108;-83
2021/12/24 03:41:48;;;;;;;22.23;13.18;;;9.00;99.90;;;;;;4982236;28;20413;-85
2021/12/24 03:44:16;;;;;;;22.70;13.15;;;9.10;99.90;;;;;;4985651;28;20393;-86
2021/12/24 03:49:20;;;;;;;22.90;13.07;;;9.00;99.90;;;;;;4986163;28;20130;-85
2021/12/24 03:51:55;;;;;;;20.45;13.45;;;9.10;99.90;;;;;;5003115;28;20048;-84
2021/12/24 03:57:06;;;;;;;19.58;11.93;;;9.00;99.90;;;;;;4992624;28;21151;-86
2021/12/24 03:59:31;;;;;;;17.77;11.10;;;9.10;99.90;;;;;;5028571;28;20134;-85
2021/12/24 04:01:57;;;;;;;16.58;10.90;;;9.00;99.90;;;;;;5010692;28;20065;-85
2021/12/24 04:04:23;;;;;;;17.23;11.15;;;9.10;99.90;;;;;;4993475;28;20039;-86
2021/12/24 04:06:49;;;;;;;17.95;11.65;;;9.10;99.90;;;;;;5003395;28;20126;-85
2021/12/24 04:09:15;;;;;;;20.48;12.10;;;9.20;99.90;;;;;;5004547;28;20113;-87
2021/12/24 04:11:41;;;;;;;20.38;12.75;;;9.20;99.90;;;;;;4979496;28;20558;-86
2021/12/24 04:14:07;;;;;;;23.17;13.90;;;9.20;99.90;;;;;;5002837;28;20315;-85
2021/12/24 04:16:33;;;;;;;26.77;15.73;;;9.20;99.90;;;;;;5003175;28;20548;-86
2021/12/24 04:26:59;;;;;;;33.67;18.38;;;9.30;99.90;;;;;;5005398;28;20781;-85
2021/12/24 04:29:27;;;;;;;35.65;20.00;;;9.30;99.90;;;;;;4986230;28;20048;-87
2021/12/24 04:32:06;;;;;;;36.70;21.00;;;9.20;99.90;;;;;;4969310;28;20062;-87
2021/12/24 04:34:34;;;;;;;35.97;21.05;;;9.30;99.90;;;;;;4987259;28;20040;-85
2021/12/24 05:01:37;;;;;;;;;;;9.20;99.90;;;;;;5004949;28;20815;-85
2021/12/24 05:04:04;;;;;;;42.33;24.48;;;9.20;99.90;;;;;;4997083;28;20356;-85
2021/12/24 05:06:39;;;;;;;46.35;24.52;;;9.20;99.90;;;;;;5003259;28;20066;-86
2021/12/24 05:09:09;;;;;;;47.47;25.92;;;9.20;99.90;;;;;;4987890;28;20047;-83
2021/12/24 05:11:36;;;;;;;46.13;24.85;;;9.20;99.90;;;;;;4980827;28;20236;-84
2021/12/24 05:14:03;;;;;;;47.60;25.27;;;9.20;99.90;;;;;;4998834;28;20945;-84
2021/12/24 05:16:44;;;;;;;49.80;26.55;;;9.20;99.90;;;;;;5020009;28;20561;-86
2021/12/24 05:21:48;;;;;;;46.75;26.08;;;9.20;99.90;;;;;;4999787;28;20504;-85
2021/12/24 05:24:23;;;;;;;54.95;26.48;;;9.20;99.90;;;;;;5004446;28;20071;-87
2021/12/24 05:26:56;;;;;;;50.97;25.73;;;9.20;99.90;;;;;;5006233;28;21255;-85
2021/12/24 05:29:22;;;;;;;47.00;25.10;;;9.30;99.90;;;;;;5002478;28;20051;-85
2021/12/24 05:31:49;;;;;;;53.22;26.20;;;9.20;99.90;;;;;;4987821;28;20067;-83
2021/12/24 05:34:17;;;;;;;44.85;24.20;;;9.30;99.90;;;;;;4998295;28;20047;-86
2021/12/24 05:36:44;;;;;;;48.30;24.40;;;9.30;99.90;;;;;;4982849;28;20043;-85
2021/12/24 05:39:10;;;;;;;44.10;23.48;;;9.20;99.90;;;;;;5003783;28;20051;-83
2021/12/24 05:41:37;;;;;;;48.05;25.65;;;9.30;99.90;;;;;;5003095;28;20373;-85
2021/12/24 05:44:04;;;;;;;45.25;24.67;;;9.30;99.90;;;;;;4962920;28;20047;-87
2021/12/24 05:46:30;;;;;;;45.90;24.38;;;9.30;99.90;;;;;;4976297;28;20060;-86
2021/12/24 05:48:58;;;;;;;43.45;23.55;;;9.20;99.90;;;;;;5009156;28;20059;-86
2021/12/24 05:51:24;;;;;;;41.90;23.35;;;9.30;99.90;;;;;;4995715;28;20055;-87
2021/12/24 05:53:49;;;;;;;45.38;23.88;;;9.30;99.90;;;;;;5005016;28;20445;-84
2021/12/24 05:56:15;;;;;;;45.72;23.90;;;9.30;99.90;;;;;;4978730;28;20210;-84
2021/12/24 05:58:43;;;;;;;45.30;24.15;;;9.30;99.90;;;;;;4997614;28;20511;-86
2021/12/24 06:01:10;;;;;;;49.03;23.77;;;9.30;99.90;;;;;;4979194;28;20137;-84
2021/12/24 06:03:36;;;;;;;43.42;23.50;;;9.30;99.90;;;;;;5000639;28;20496;-83
2021/12/24 06:06:02;;;;;;;44.83;24.88;;;9.30;99.90;;;;;;4985819;28;20059;-87
2021/12/24 06:08:27;;;;;;;49.72;24.52;;;9.30;99.90;;;;;;4992573;28;20046;-87
2021/12/24 06:10:54;;;;;;;47.38;23.50;;;9.30;99.90;;;;;;5003123;28;20062;-84
2021/12/24 06:13:23;;;;;;;45.83;24.33;;;9.30;99.90;;;;;;5011070;28;20114;-86
2021/12/24 06:15:49;;;;;;;42.13;22.88;;;9.30;99.90;;;;;;4987119;28;20054;-84
2021/12/24 06:18:35;;;;;;;46.65;20.30;;;9.20;99.90;;;;;;5000817;28;20044;-85
2021/12/24 06:21:02;;;;;;;46.58;21.52;;;9.30;99.90;;;;;;5004871;28;20578;-86
2021/12/24 06:23:28;;;;;;;43.03;21.73;;;9.20;99.90;;;;;;5003670;28;20436;-85
2021/12/24 06:25:57;;;;;;;38.88;20.88;;;9.20;99.90;;;;;;5006049;28;20051;-85
2021/12/24 06:28:23;;;;;;;38.40;20.80;;;9.20;99.90;;;;;;4990223;28;20609;-86
2021/12/24 06:30:50;;;;;;;42.47;22.40;;;9.20;99.90;;;;;;4988475;28;20147;-85
2021/12/24 06:33:16;;;;;;;45.08;20.98;;;9.30;99.90;;;;;;4984681;28;20791;-85
2021/12/24 06:35:42;;;;;;;41.20;21.60;;;9.30;99.90;;;;;;5003485;28;20058;-84
2021/12/24 06:38:08;;;;;;;39.25;20.90;;;9.30;99.90;;;;;;5002847;28;20048;-85
2021/12/24 06:40:35;;;;;;;41.05;21.15;;;9.30;99.90;;;;;;5008752;28;20192;-85
2021/12/24 06:43:01;;;;;;;42.85;20.90;;;9.20;99.90;;;;;;5008570;28;20378;-86
2021/12/24 06:45:27;;;;;;;40.60;21.35;;;9.20;99.90;;;;;;5006903;28;20055;-85
2021/12/24 06:47:57;;;;;;;49.15;21.00;;;9.30;99.90;;;;;;5005967;28;20050;-85
2021/12/24 06:50:24;;;;;;;42.67;21.30;;;9.20;99.90;;;;;;4996268;28;20055;-85
2021/12/24 06:52:51;;;;;;;41.80;20.13;;;9.20;99.90;;;;;;4991213;28;20043;-85
2021/12/24 06:55:18;;;;;;;37.17;20.08;;;9.30;99.90;;;;;;4972409;28;20039;-84
2021/12/24 06:57:44;;;;;;;34.22;19.25;;;9.20;99.90;;;;;;4979874;28;20048;-85
2021/12/24 07:00:16;;;;;;;38.05;19.38;;;9.20;99.90;;;;;;4985309;28;20035;-87
2021/12/24 07:02:42;;;;;;;44.50;19.05;;;9.20;99.90;;;;;;5001522;28;20374;-86
2021/12/24 07:05:09;;;;;;;37.30;18.73;;;9.20;99.90;;;;;;5009041;28;20477;-86
2021/12/24 07:07:34;;;;;;;34.97;18.10;;;9.20;99.90;;;;;;5008744;28;20121;-86
2021/12/24 07:10:00;;;;;;;33.60;18.30;;;9.20;99.90;;;;;;4985086;28;20121;-84
2021/12/24 07:12:26;;;;;;;36.65;18.13;;;9.20;99.90;;;;;;5004906;28;20047;-86
2021/12/24 07:14:52;;;;;;;33.80;18.25;;;9.20;99.90;;;;;;4993573;28;20052;-85
2021/12/24 07:17:18;;;;;;;32.50;16.98;;;9.10;99.90;;;;;;5005818;28;20108;-85
2021/12/24 07:19:44;;;;;;;34.00;16.98;;;9.10;99.90;;;;;;5006146;28;20047;-84
2021/12/24 07:22:12;;;;;;;36.95;16.88;;;9.10;99.90;;;;;;5004708;28;20059;-84
2021/12/24 07:24:39;;;;;;;34.63;16.02;;;9.10;99.90;;;;;;4985726;28;20435;-86
2021/12/24 07:27:05;;;;;;;31.95;15.77;;;9.10;99.90;;;;;;5015617;28;20044;-84
2021/12/24 07:29:31;;;;;;;29.45;15.68;;;9.00;99.90;;;;;;5000588;28;20431;-83
2021/12/24 07:31:57;;;;;;;37.28;17.42;;;9.00;99.90;;;;;;5005484;28;20055;-85
2021/12/24 07:34:24;;;;;;;39.58;16.73;;;9.10;99.90;;;;;;5004906;28;20370;-86
2021/12/24 07:36:50;;;;;;;31.85;15.75;;;9.00;99.90;;;;;;4999046;28;20411;-84
2021/12/24 07:39:16;;;;;;;29.75;15.02;;;9.10;99.90;;;;;;5005754;28;20980;-85
2021/12/24 07:41:42;;;;;;;33.97;14.73;;;9.00;99.90;;;;;;5007347;28;20070;-85
2021/12/24 07:44:08;;;;;;;30.98;15.52;;;9.00;99.90;;;;;;4989590;28;20063;-84
2021/12/24 07:46:44;;;;;;;35.50;15.75;;;9.00;99.90;;;;;;5003076;28;20054;-83
2021/12/24 07:54:35;;;;;;;36.80;16.05;;;9.00;99.90;;;;;;5026215;28;20126;-89
2021/12/24 07:57:01;;;;;;;41.55;16.75;;;9.00;99.90;;;;;;4987818;28;20870;-86
2021/12/24 07:59:30;;;;;;;34.95;15.43;;;8.90;99.90;;;;;;5003747;28;20136;-83
2021/12/24 08:01:56;;;;;;;35.85;14.73;;;8.90;99.90;;;;;;5000738;28;20095;-84
2021/12/24 08:04:22;;;;;;;31.05;14.05;;;8.90;99.90;;;;;;5004681;28;20132;-86
2021/12/24 08:06:49;;;;;;;29.48;13.75;;;9.00;99.90;;;;;;4988782;28;21324;-85
2021/12/24 08:09:15;;;;;;;30.63;14.50;;;8.90;99.90;;;;;;5007455;28;20522;-84
2021/12/24 08:11:41;;;;;;;31.65;13.43;;;9.00;99.90;;;;;;4981469;28;20044;-84
2021/12/24 08:14:08;;;;;;;30.13;14.52;;;8.90;99.90;;;;;;4972646;28;20040;-85
2021/12/24 08:16:35;;;;;;;33.50;14.40;;;9.00;99.90;;;;;;5004815;28;20102;-87
2021/12/24 08:19:02;;;;;;;34.47;13.73;;;9.00;99.90;;;;;;5009074;28;20325;-86
2021/12/24 08:21:28;;;;;;;36.40;13.20;;;8.90;99.90;;;;;;5004528;28;20507;-89
2021/12/24 08:23:54;;;;;;;30.00;12.90;;;8.90;99.90;;;;;;4988736;28;21154;-85
2021/12/24 08:26:25;;;;;;;29.00;12.65;;;8.90;99.90;;;;;;5009141;28;20601;-89
2021/12/24 08:28:52;;;;;;;32.08;12.75;;;8.90;99.90;;;;;;4979079;28;20497;-86
2021/12/24 08:31:18;;;;;;;31.75;12.65;;;8.90;99.90;;;;;;4986470;28;20120;-85
2021/12/24 08:33:46;;;;;;;29.20;12.32;;;8.90;99.90;;;;;;5011396;28;20052;-90
2021/12/24 08:36:13;;;;;;;32.45;12.88;;;8.90;99.90;;;;;;5004491;28;20446;-88
2021/12/24 08:38:39;;;;;;;31.80;13.00;;;8.90;99.90;;;;;;4999766;28;20116;-86
2021/12/24 08:41:05;;;;;;;28.33;13.07;;;8.90;99.90;;;;;;4983921;28;20047;-86
2021/12/24 08:43:33;;;;;;;27.42;12.30;;;8.90;99.90;;;;;;5002686;28;20752;-88
2021/12/24 08:45:59;;;;;;;31.08;13.35;;;8.90;99.90;;;;;;4994561;28;20074;-86
2021/12/24 08:48:25;;;;;;;33.47;12.98;;;8.90;99.90;;;;;;4968833;28;20058;-86
2021/12/24 08:50:51;;;;;;;34.55;13.23;;;8.90;99.90;;;;;;5011147;28;20488;-85
2021/12/24 08:53:17;;;;;;;34.78;13.18;;;8.80;99.90;;;;;;4986169;28;20085;-87
2021/12/24 08:55:43;;;;;;;30.50;12.32;;;8.90;99.90;;;;;;4992233;28;20403;-85
2021/12/24 08:58:09;;;;;;;30.17;12.57;;;8.80;99.90;;;;;;5009333;28;20119;-87
2021/12/24 09:00:36;;;;;;;29.60;11.45;;;8.90;99.90;;;;;;5015209;28;20243;-87
2021/12/24 09:03:02;;;;;;;34.70;11.90;;;8.90;99.90;;;;;;5009656;28;20433;-85
2021/12/24 09:05:31;;;;;;;32.90;11.73;;;8.90;99.90;;;;;;4981518;28;20749;-88
2021/12/24 09:07:57;;;;;;;33.50;11.85;;;8.90;99.90;;;;;;5002722;28;20043;-84
2021/12/24 09:10:26;;;;;;;27.73;10.88;;;8.90;99.90;;;;;;4975905;28;20133;-86
2021/12/24 09:12:53;;;;;;;29.02;10.65;;;8.90;99.90;;;;;;5005483;28;20583;-84
2021/12/24 09:15:19;;;;;;;29.23;10.25;;;8.90;99.90;;;;;;5008540;28;20059;-86
2021/12/24 09:17:48;;;;;;;30.55;10.90;;;9.00;99.90;;;;;;4981166;28;20101;-84
2021/12/24 09:20:23;;;;;;;27.92;10.85;;;9.00;99.90;;;;;;5006079;28;20433;-87
2021/12/24 09:22:49;;;;;;;30.23;10.98;;;9.10;99.90;;;;;;5004482;28;20147;-84
2021/12/24 09:25:16;;;;;;;31.52;11.05;;;9.00;99.90;;;;;;5023606;27;20787;-86
2021/12/24 09:27:43;;;;;;;31.50;10.73;;;9.10;99.90;;;;;;5004447;28;20501;-85
2021/12/24 09:30:10;;;;;;;28.67;10.52;;;9.10;99.90;;;;;;5008390;28;20092;-87
2021/12/24 09:32:36;;;;;;;29.33;10.55;;;9.00;99.90;;;;;;5003150;28;20060;-84
2021/12/24 09:35:03;;;;;;;28.25;11.15;;;9.00;99.90;;;;;;5006044;28;20126;-83
2021/12/24 09:37:29;;;;;;;27.38;10.15;;;9.10;99.90;;;;;;5002884;28;20489;-83
2021/12/24 09:39:54;;;;;;;37.13;11.43;;;9.10;99.90;;;;;;5003836;28;20040;-86
2021/12/24 09:42:23;;;;;;;28.45;10.00;;;9.10;99.90;;;;;;4979156;28;20966;-85
2021/12/24 09:44:48;;;;;;;27.67;9.55;;;9.10;99.90;;;;;;4981229;28;20065;-86
2021/12/24 09:47:14;;;;;;;28.42;9.98;;;9.10;99.90;;;;;;5003646;28;20044;-84
2021/12/24 09:49:40;;;;;;;26.35;9.82;;;9.10;99.90;;;;;;5002977;28;20150;-86
2021/12/24 09:52:06;;;;;;;29.50;10.18;;;9.10;99.90;;;;;;4992627;28;20090;-87
2021/12/24 09:54:33;;;;;;;27.58;9.73;;;9.10;99.90;;;;;;4995816;28;20054;-85
2021/12/24 09:57:01;;;;;;;29.58;10.48;;;9.10;99.90;;;;;;5005343;28;20084;-86
2021/12/24 09:59:27;;;;;;;30.45;10.57;;;9.10;99.90;;;;;;5008082;28;20866;-85
2021/12/24 10:02:00;;;;;;;28.98;10.20;;;9.10;99.90;;;;;;4990966;28;20043;-88
2021/12/24 10:04:34;;;;;;;24.42;9.43;;;9.00;99.90;;;;;;4991760;28;20861;-85
2021/12/24 10:07:07;;;;;;;23.98;9.07;;;9.10;99.90;;;;;;4992402;28;20042;-85
2021/12/24 10:09:35;;;;;;;24.05;9.80;;;9.10;99.90;;;;;;5013616;28;20056;-84
2021/12/24 10:12:09;;;;;;;23.88;9.95;;;9.10;99.90;;;;;;5005683;28;20048;-83
2021/12/24 10:14:41;;;;;;;24.85;9.25;;;9.10;99.90;;;;;;5012724;28;20047;-82
2021/12/24 10:17:20;;;;;;;23.73;9.27;;;9.20;99.90;;;;;;5006835;28;20050;-84
2021/12/24 10:20:00;;;;;;;24.05;8.27;;;9.20;99.90;;;;;;5002159;28;20615;-84
2021/12/24 10:22:25;;;;;;;23.30;8.18;;;9.20;99.90;;;;;;4985392;28;20117;-84
2021/12/24 10:25:12;;;;;;;17.23;7.90;;;9.20;99.90;;;;;;5005243;28;20967;-86
2021/12/24 10:27:38;;;;;;;20.48;7.97;;;9.20;99.90;;;;;;4984813;28;20572;-86
2021/12/24 10:30:33;;;;;;;22.58;8.25;;;9.30;99.90;;;;;;5001592;28;20641;-85
2021/12/24 10:33:10;;;;;;;21.27;8.25;;;9.20;99.90;;;;;;4963389;28;20051;-87
2021/12/24 10:35:36;;;;;;;22.30;9.10;;;9.20;99.90;;;;;;4996646;28;20441;-83
2021/12/24 10:38:20;;;;;;;21.77;8.25;;;9.20;99.90;;;;;;4997071;28;20865;-85
2021/12/24 10:41:01;;;;;;;19.23;7.40;;;9.30;99.90;;;;;;4983576;28;20157;-85
2021/12/24 10:43:33;;;;;;;17.63;7.55;;;9.20;99.90;;;;;;4965286;28;20404;-86
2021/12/24 10:46:12;;;;;;;18.67;7.38;;;9.20;99.90;;;;;;4974657;28;20062;-85
2021/12/24 10:48:46;;;;;;;17.40;7.10;;;9.20;99.90;;;;;;4997020;28;20169;-83
2021/12/24 10:51:42;;;;;;;19.65;7.50;;;9.20;99.90;;;;;;4962502;28;20051;-85
2021/12/24 10:54:06;;;;;;;18.48;7.60;;;9.30;99.90;;;;;;4973846;28;20060;-86
2021/12/24 10:56:32;;;;;;;23.10;7.90;;;9.20;99.90;;;;;;4952231;28;20056;-86
2021/12/24 10:58:58;;;;;;;19.35;7.75;;;9.30;99.90;;;;;;4971593;28;20040;-85
2021/12/24 11:01:23;;;;;;;17.88;7.15;;;9.30;99.90;;;;;;4954230;28;20052;-86
2021/12/24 11:03:50;;;;;;;17.63;7.10;;;9.30;99.90;;;;;;5006711;28;20048;-86
2021/12/24 11:06:16;;;;;;;18.20;7.60;;;9.20;99.90;;;;;;4962304;28;20059;-84
2021/12/24 11:08:43;;;;;;;23.27;8.20;;;9.30;99.90;;;;;;4954183;28;20532;-87
2021/12/24 11:11:17;;;;;;;21.58;8.07;;;9.30;99.90;;;;;;4963264;28;20123;-87
2021/12/24 11:13:47;;;;;;;24.05;8.63;;;9.30;99.90;;;;;;4974063;28;20503;-89
2021/12/24 11:16:22;;;;;;;23.23;7.93;;;9.30;99.90;;;;;;4965359;28;20190;-86
2021/12/24 11:19:02;;;;;;;21.42;8.50;;;9.20;99.90;;;;;;4983548;28;20618;-85
2021/12/24 11:21:29;;;;;;;21.02;8.02;;;9.30;99.90;;;;;;4982230;28;20914;-86
2021/12/24 11:23:56;;;;;;;20.60;8.00;;;9.30;99.90;;;;;;4979420;28;20917;-86
2021/12/24 11:26:30;;;;;;;22.27;8.30;;;9.30;99.90;;;;;;4965640;28;20131;-87
2021/12/24 11:28:57;;;;;;;17.95;7.55;;;9.30;99.90;;;;;;4966294;28;20100;-86
2021/12/24 11:31:28;;;;;;;22.35;8.00;;;9.30;99.90;;;;;;4973808;28;22014;-86
2021/12/24 11:33:55;;;;;;;20.70;7.95;;;9.30;99.90;;;;;;4980736;28;20100;-84
2021/12/24 11:36:23;;;;;;;21.85;7.63;;;9.30;99.90;;;;;;5001289;28;20151;-87
2021/12/24 11:39:02;;;;;;;22.48;8.30;;;9.30;99.90;;;;;;4963111;28;20039;-86
2021/12/24 11:41:31;;;;;;;28.05;8.63;;;9.30;99.90;;;;;;4961431;28;20300;-87
2021/12/24 11:43:58;;;;;;;21.70;8.70;;;9.30;99.90;;;;;;4957906;28;20927;-85
2021/12/24 11:46:26;;;;;;;26.73;8.50;;;9.30;99.90;;;;;;4987053;28;20043;-86
2021/12/24 11:48:54;;;;;;;20.92;8.60;;;9.30;99.90;;;;;;4960140;28;20131;-86
2021/12/24 11:51:46;;;;;;;20.30;8.73;;;9.30;99.90;;;;;;4981461;28;20090;-86
2021/12/24 11:54:13;;;;;;;23.85;8.95;;;9.30;99.90;;;;;;4994988;28;20142;-84
2021/12/24 11:56:45;;;;;;;28.00;9.25;;;9.30;99.90;;;;;;4963722;28;20055;-85
2021/12/24 11:59:13;;;;;;;26.27;9.48;;;9.20;99.90;;;;;;4983197;28;20059;-83
2021/12/24 12:01:43;;;;;;;25.10;8.98;;;9.20;99.90;;;;;;4981864;28;21048;-84
2021/12/24 12:04:19;;;;;;;27.45;9.20;;;9.20;99.90;;;;;;4969043;28;20090;-84
2021/12/24 12:06:45;;;;;;;24.15;9.02;;;9.20;99.90;;;;;;4963061;28;20090;-84
2021/12/24 12:09:12;;;;;;;23.70;9.00;;;9.20;99.90;;;;;;4961889;28;20134;-84
2021/12/24 12:11:41;;;;;;;24.00;8.98;;;9.20;99.90;;;;;;4980289;28;20063;-84
2021/12/24 12:14:18;;;;;;;23.00;8.63;;;9.20;99.90;;;;;;4960941;28;20543;-84
2021/12/24 12:16:53;;;;;;;10.65;3.63;;;9.20;99.90;;;;;;4971634;28;20047;-84
2021/12/24 12:24:59;;;;;;;2.45;1.20;;;8.00;99.90;;;;;;4959012;28;20609;-84
2021/12/24 12:27:30;;;;;;;3.35;1.20;;;7.50;99.90;;;;;;4963348;28;20591;-83
2021/12/24 12:29:56;;;;;;;2.78;1.10;;;7.40;99.90;;;;;;4977413;28;20749;-84
2021/12/24 12:32:24;;;;;;;2.85;1.30;;;7.40;99.90;;;;;;5002588;28;20044;-84
2021/12/24 12:34:53;;;;;;;1.48;1.20;;;7.50;99.90;;;;;;4999757;28;20604;-85
2021/12/24 12:37:20;;;;;;;1.95;1.40;;;7.50;99.90;;;;;;4998662;28;20100;-84
2021/12/24 12:40:11;;;;;;;3.85;1.50;;;7.50;99.90;;;;;;4996210;28;20282;-84
2021/12/24 12:43:08;;;;;;;3.85;1.60;;;7.60;99.90;;;;;;4981122;28;20121;-85
2021/12/24 12:45:38;;;;;;;2.75;1.50;;;7.50;99.90;;;;;;5001972;28;20581;-85
2021/12/24 12:48:06;;;;;;;2.97;1.60;;;7.60;99.90;;;;;;5001604;28;20434;-85
2021/12/24 12:50:34;;;;;;;2.53;1.65;;;7.60;99.90;;;;;;5000875;28;20076;-84
2021/12/24 12:53:25;;;;;;;4.15;1.88;;;7.40;99.90;;;;;;4994878;28;20456;-84
2021/12/24 12:56:15;;;;;;;2.40;1.50;;;7.40;99.90;;;;;;5001675;28;20047;-85
2021/12/24 12:58:43;;;;;;;2.53;1.50;;;7.20;99.90;;;;;;4989484;28;20087;-84
2021/12/24 13:01:14;;;;;;;2.88;1.60;;;7.40;99.90;;;;;;5001512;28;20459;-84
2021/12/24 13:03:55;;;;;;;3.47;1.70;;;7.50;99.90;;;;;;5001624;28;20051;-83
2021/12/24 13:06:22;;;;;;;2.83;1.60;;;7.50;99.90;;;;;;4998833;28;20055;-84
2021/12/24 13:08:49;;;;;;;1.90;1.35;;;7.40;99.90;;;;;;5000388;28;20122;-84
2021/12/24 13:11:22;;;;;;;2.30;1.50;;;7.30;99.90;;;;;;4993162;28;20127;-84
2021/12/24 13:13:54;;;;;;;2.25;1.50;;;7.40;99.90;;;;;;4996554;28;20051;-84
2021/12/24 13:16:37;;;;;;;3.65;1.80;;;7.40;99.90;;;;;;5000092;28;20552;-83
2021/12/24 13:19:21;;;;;;;3.22;1.80;;;7.40;99.90;;;;;;5018333;28;20054;-85
2021/12/24 13:24:53;;;;;;;3.00;1.80;;;7.10;99.90;;;;;;5001587;28;20508;-86
2021/12/24 13:27:23;;;;;;;2.88;2.10;;;7.20;99.90;;;;;;5012318;28;20040;-84
2021/12/24 13:30:02;;;;;;;3.92;2.22;;;7.20;99.90;;;;;;4992987;28;20116;-86
2021/12/24 13:32:28;;;;;;;3.30;2.00;;;7.10;99.90;;;;;;5009317;28;20055;-85
2021/12/24 13:34:57;;;;;;;6.10;2.33;;;7.20;99.90;;;;;;5010766;28;20625;-86
2021/12/24 13:37:30;;;;;;;3.28;2.30;;;7.20;99.90;;;;;;5012526;28;20044;-85
2021/12/24 13:39:56;;;;;;;4.53;2.70;;;7.10;99.90;;;;;;5013897;28;20052;-84
2021/12/24 13:42:22;;;;;;;4.10;2.90;;;7.00;99.90;;;;;;5011966;28;20056;-84
2021/12/24 13:44:48;;;;;;;4.10;2.70;;;7.00;99.90;;;;;;5010597;28;20860;-84
2021/12/24 13:47:26;;;;;;;4.60;3.00;;;6.90;99.90;;;;;;5009884;28;20043;-83
2021/12/24 13:50:08;;;;;;;6.15;3.42;;;6.80;99.90;;;;;;5031525;28;20096;-86
2021/12/24 13:55:23;;;;;;;6.60;3.28;;;6.80;99.90;;;;;;5010446;28;20186;-85
2021/12/24 13:57:58;;;;;;;6.30;3.60;;;6.90;99.90;;;;;;4989174;28;20298;-85
2021/12/24 14:00:26;;;;;;;6.18;3.70;;;6.90;99.90;;;;;;5011014;28;20923;-86
2021/12/24 14:03:04;;;;;;;6.72;3.92;;;6.80;99.90;;;;;;4978080;28;20512;-85
2021/12/24 14:05:30;;;;;;;6.60;4.00;;;6.70;99.90;;;;;;5005675;28;20051;-85
2021/12/24 14:08:11;;;;;;;6.00;3.80;;;6.80;99.90;;;;;;5010269;28;20076;-86
2021/12/24 14:10:39;;;;;;;5.75;3.67;;;6.80;99.90;;;;;;5007034;28;20293;-83
2021/12/24 14:13:16;;;;;;;7.40;4.18;;;6.70;99.90;;;;;;5004988;28;20513;-85
2021/12/24 14:18:44;;;;;;;6.78;4.00;;;6.80;99.90;;;;;;5011270;28;20560;-85
2021/12/24 14:24:31;;;;;;;17.20;4.60;;;6.90;99.90;;;;;;5014006;28;20055;-87
2021/12/24 14:27:02;;;;;;;7.47;3.97;;;6.90;99.90;;;;;;4990134;28;20061;-84
2021/12/24 14:29:40;;;;;;;13.88;4.75;;;6.90;99.90;;;;;;5010911;28;20378;-85
2021/12/24 14:32:26;;;;;;;8.18;4.40;;;6.90;99.90;;;;;;5013511;28;20102;-85
2021/12/24 14:34:55;;;;;;;12.48;4.70;;;7.00;99.90;;;;;;5014948;28;20044;-84
2021/12/24 14:37:35;;;;;;;7.10;4.50;;;7.00;99.90;;;;;;5005794;28;20808;-85
2021/12/24 14:40:07;;;;;;;8.05;4.63;;;7.10;99.90;;;;;;5003484;28;20519;-86
2021/12/24 14:42:36;;;;;;;9.95;4.60;;;7.00;99.90;;;;;;4994061;28;20051;-85